Pagrindinis puslapis
METAR-TAF:

METAR-TAF

Oro uostai :

Taubatė, San Paulas, Brazilija

platuma: 23-02-26S, ilguma: 45-31-00W, Aukštis: 577 m

Dabartinis oras

Ataskaita buvo paskelbta 9 valandos ir 9 minutes, ne 21:00 UTC
Vėjas 4 kt iš Pietų/Pietvakarių, svyruoja nuo Pietryčių ir Vakarų/Pietvakarių
Temperatūra 21°C
Drėgmė 73%
Slėgis 1017 hPa
Matomumas 10 km arba daugiau
Išsisklaidę debesys ne aukštis 2500 ft
Apsiniaukę ne aukštis 4300 ft

METAR: SBTA 222100Z 20004KT 130V250 9999 SCT025 OVC043 21/16 Q1017

Laikas: 03:09 (06:09 UTC)


TAF: trūkstamas

Orai ataskaitas ir orų prognozės (METAR, TAF).

turimą stotys yra geltonos ir raudonos taškus žemėlapyje.

Perkelti pele per norėdami pamatyti stoties vardą.

Tada spustelėkite, norėdami matyti oro stebėjimo ir prognozės.

Norėdami pakeisti žemėlapį: spustelėkite ant žalios mygtukų su juodo kryžiaus žemyn,; žalią mygtuką su brūkšneliu, jei norite nutolinti; arba žalių rodyklių gretimoms žemėlapius.


METAR-TAF: